Аэропорт: Уйташ. Махачкала

ICAO: URML

METAR:
2022-06-26 11:00:00
URML 261100Z 36006MPS 330V030 9999 NSC 30/19 Q1004 R32/01//70 NOSIG RMK QFE752/1003
METAR:
2022-06-26 08:00:00
TAF URML 260800Z 2609/2618 02006G13MPS 9999 SCT050CB TEMPO 2609/2615 VRB05G11MPS 6000 -TSRA SCT016 SCT050CB